createdAt,value
2017-12-02T00:02:18.306Z,-0.80
2017-12-02T00:04:45.825Z,-0.90
2017-12-02T00:07:13.324Z,-0.90
2017-12-02T00:09:41.679Z,-0.90
2017-12-02T00:12:09.178Z,-0.90
2017-12-02T00:14:37.462Z,-0.90
2017-12-02T00:17:04.967Z,-0.90
2017-12-02T00:19:32.461Z,-0.90
2017-12-02T00:22:00.750Z,-0.90
2017-12-02T00:24:29.014Z,-0.90
2017-12-02T00:26:57.300Z,-0.90
2017-12-02T00:29:25.566Z,-0.90
2017-12-02T00:31:53.835Z,-0.90
2017-12-02T00:34:22.141Z,-0.90
2017-12-02T00:36:49.645Z,-0.90
2017-12-02T00:39:17.173Z,-0.80
2017-12-02T00:41:44.670Z,-0.80
2017-12-02T00:44:12.172Z,-0.80
2017-12-02T00:46:39.694Z,-0.80
2017-12-02T00:49:07.195Z,-0.70
2017-12-02T00:51:34.718Z,-0.70
2017-12-02T00:54:02.232Z,-0.70
2017-12-02T00:56:29.726Z,-0.80
2017-12-02T00:58:57.257Z,-0.80
2017-12-02T01:01:24.761Z,-0.70
2017-12-02T01:03:53.042Z,-0.70
2017-12-02T01:06:21.306Z,-0.70
2017-12-02T01:08:49.570Z,-0.70
2017-12-02T01:11:17.094Z,-0.70
2017-12-02T01:13:44.600Z,-0.70
2017-12-02T01:16:12.892Z,-0.70
2017-12-02T01:18:40.400Z,-0.70
2017-12-02T01:21:07.902Z,-0.70
2017-12-02T01:23:36.190Z,-0.70
2017-12-02T01:26:03.689Z,-0.80
2017-12-02T01:28:31.217Z,-0.80
2017-12-02T01:30:58.718Z,-0.80
2017-12-02T01:33:26.209Z,-0.80
2017-12-02T01:35:54.502Z,-0.90
2017-12-02T01:38:22.010Z,-0.90
2017-12-02T01:40:49.542Z,-0.90
2017-12-02T01:43:17.042Z,-1.00
2017-12-02T01:45:44.557Z,-1.10
2017-12-02T01:48:12.059Z,-1.10
2017-12-02T01:50:39.566Z,-1.00
2017-12-02T01:53:07.087Z,-1.10
2017-12-02T01:55:35.355Z,-1.00
2017-12-02T01:58:03.646Z,-1.00
2017-12-02T02:00:34.782Z,-1.00
2017-12-02T02:03:03.070Z,-1.00
2017-12-02T02:05:31.342Z,-1.00
2017-12-02T02:07:59.631Z,-1.00
2017-12-02T02:10:27.126Z,-1.00
2017-12-02T02:12:54.641Z,-1.00
2017-12-02T02:15:22.906Z,-1.00
2017-12-02T02:17:51.170Z,-1.00
2017-12-02T02:20:18.699Z,-1.00
2017-12-02T02:22:46.194Z,-1.00
2017-12-02T02:25:14.484Z,-1.00
2017-12-02T02:27:42.746Z,-1.00
2017-12-02T02:30:11.039Z,-1.00
2017-12-02T02:32:38.539Z,-1.00
2017-12-02T02:35:06.038Z,-1.00
2017-12-02T02:37:34.326Z,-1.00
2017-12-02T02:40:02.593Z,-1.00
2017-12-02T02:42:30.886Z,-1.10
2017-12-02T02:44:58.386Z,-1.10
2017-12-02T02:47:25.906Z,-1.10
2017-12-02T02:49:53.410Z,-1.00
2017-12-02T02:52:20.910Z,-1.00
2017-12-02T02:54:49.194Z,-1.20
2017-12-02T02:57:16.694Z,-1.20
2017-12-02T02:59:44.214Z,-1.20
2017-12-02T03:02:11.708Z,-1.20
2017-12-02T03:04:39.206Z,-1.30
2017-12-02T03:07:07.494Z,-1.30
2017-12-02T03:09:35.782Z,-1.30
2017-12-02T03:12:03.282Z,-1.30
2017-12-02T03:14:30.802Z,-1.30
2017-12-02T03:16:58.302Z,-1.30
2017-12-02T03:19:25.798Z,-1.30
2017-12-02T03:21:54.082Z,-1.40
2017-12-02T03:24:22.345Z,-1.40
2017-12-02T03:26:50.630Z,-1.40
2017-12-02T03:29:18.899Z,-1.40
2017-12-02T03:31:47.187Z,-1.50
2017-12-02T03:34:15.454Z,-1.50
2017-12-02T03:36:43.719Z,-1.50
2017-12-02T03:39:11.243Z,-1.60
2017-12-02T03:41:38.742Z,-1.50
2017-12-02T03:44:06.270Z,-1.60
2017-12-02T03:46:33.770Z,-1.60
2017-12-02T03:49:02.062Z,-1.80
2017-12-02T03:51:29.563Z,-1.80
2017-12-02T03:53:57.830Z,-1.80
2017-12-02T03:56:25.345Z,-1.80
2017-12-02T03:58:53.614Z,-1.70
2017-12-02T04:01:21.911Z,-1.70
2017-12-02T04:03:49.418Z,-1.70
2017-12-02T04:06:16.940Z,-1.60
2017-12-02T04:08:44.438Z,-1.60
2017-12-02T04:11:11.962Z,-1.60
2017-12-02T04:13:39.462Z,-1.50
2017-12-02T04:16:06.961Z,-1.40
2017-12-02T04:18:34.485Z,-1.40
2017-12-02T04:21:01.994Z,-1.40
2017-12-02T04:23:29.518Z,-1.40
2017-12-02T04:25:57.782Z,-1.40
2017-12-02T04:28:25.306Z,-1.50
2017-12-02T04:30:52.807Z,-1.40
2017-12-02T04:33:21.079Z,-1.40
2017-12-02T04:35:49.362Z,-1.50
2017-12-02T04:38:17.626Z,-1.40
2017-12-02T04:40:45.150Z,-1.50
2017-12-02T04:43:12.650Z,-1.40
2017-12-02T04:45:40.939Z,-1.40
2017-12-02T04:48:09.206Z,-1.50
2017-12-02T04:50:37.498Z,-1.50
2017-12-02T04:53:05.787Z,-1.50
2017-12-02T04:55:33.286Z,-1.50
2017-12-02T04:58:00.806Z,-1.50
2017-12-02T05:00:28.311Z,-1.50
2017-12-02T05:02:55.838Z,-1.50
2017-12-02T05:05:23.338Z,-1.50
2017-12-02T05:07:50.846Z,-1.60
2017-12-02T05:10:18.366Z,-1.60
2017-12-02T05:12:46.634Z,-1.60
2017-12-02T05:15:14.159Z,-1.60
2017-12-02T05:17:41.659Z,-1.60
2017-12-02T05:20:09.946Z,-1.60
2017-12-02T05:22:38.211Z,-1.60
2017-12-02T05:25:06.480Z,-1.60
2017-12-02T05:27:34.002Z,-1.60
2017-12-02T05:30:01.501Z,-1.70
2017-12-02T05:32:29.786Z,-1.90
2017-12-02T05:34:58.047Z,-1.90
2017-12-02T05:37:25.571Z,-1.90
2017-12-02T05:39:53.073Z,-1.90
2017-12-02T05:42:21.338Z,-1.90
2017-12-02T05:44:48.862Z,-2.00
2017-12-02T05:47:16.362Z,-2.00
2017-12-02T05:49:44.659Z,-2.00
2017-12-02T05:52:12.918Z,-2.10
2017-12-02T05:54:41.206Z,-2.10
2017-12-02T05:57:09.471Z,-2.10
2017-12-02T05:59:37.761Z,-2.30
2017-12-02T06:02:05.274Z,-2.30
2017-12-02T06:04:32.774Z,-2.40
2017-12-02T06:07:01.063Z,-2.50
2017-12-02T06:09:28.566Z,-2.50
2017-12-02T06:11:56.091Z,-2.50
2017-12-02T06:14:23.595Z,-2.50
2017-12-02T06:16:51.123Z,-2.50
2017-12-02T06:19:18.646Z,-2.50
2017-12-02T06:21:46.943Z,-2.50
2017-12-02T06:24:14.447Z,-2.50
2017-12-02T06:26:41.946Z,-2.40
2017-12-02T06:29:09.472Z,-2.30
2017-12-02T06:31:36.981Z,-2.30
2017-12-02T06:34:04.507Z,-2.30
2017-12-02T06:36:32.783Z,-2.20
2017-12-02T06:39:01.084Z,-2.20
2017-12-02T06:41:28.586Z,-2.20
2017-12-02T06:43:56.091Z,-2.10
2017-12-02T06:46:23.631Z,-2.00
2017-12-02T06:48:51.898Z,-1.90
2017-12-02T06:51:19.427Z,-2.00
2017-12-02T06:53:46.943Z,-1.80
2017-12-02T06:56:14.465Z,-1.80
2017-12-02T06:58:41.968Z,-1.70
2017-12-02T07:01:09.474Z,-1.60
2017-12-02T07:03:36.998Z,-1.60
2017-12-02T07:06:04.503Z,-1.50
2017-12-02T07:08:32.032Z,-1.50
2017-12-02T07:10:59.530Z,-1.50
2017-12-02T07:13:27.832Z,-1.50
2017-12-02T07:15:55.338Z,-1.50
2017-12-02T07:18:22.852Z,-1.50
2017-12-02T07:20:50.390Z,-1.50
2017-12-02T07:23:18.662Z,-1.50
2017-12-02T07:25:46.959Z,-1.40
2017-12-02T07:28:14.481Z,-1.40
2017-12-02T07:30:42.007Z,-1.40
2017-12-02T07:33:09.514Z,-1.40
2017-12-02T07:35:37.807Z,-1.40
2017-12-02T07:38:06.079Z,-1.40
2017-12-02T07:40:34.351Z,-1.40
2017-12-02T07:43:02.643Z,-1.40
2017-12-02T07:45:30.151Z,-1.40
2017-12-02T07:47:57.675Z,-1.40
2017-12-02T07:50:25.176Z,-1.40
2017-12-02T07:52:52.707Z,-1.30
2017-12-02T07:55:20.207Z,-1.40
2017-12-02T07:57:48.487Z,-1.40
2017-12-02T08:00:16.783Z,-1.50
2017-12-02T08:02:45.057Z,-1.50
2017-12-02T08:05:13.349Z,-1.40
2017-12-02T08:07:40.851Z,-1.40
2017-12-02T08:10:08.379Z,-1.30
2017-12-02T08:12:35.882Z,-1.30
2017-12-02T08:15:03.407Z,-1.30
2017-12-02T08:17:30.911Z,-1.30
2017-12-02T08:19:59.203Z,-1.30
2017-12-02T08:22:27.562Z,-1.30
2017-12-02T08:24:55.090Z,-1.20
2017-12-02T08:27:22.595Z,-1.10
2017-12-02T08:29:50.887Z,-1.10
2017-12-02T08:32:18.410Z,-1.10
2017-12-02T08:34:45.935Z,-1.10
2017-12-02T08:37:13.444Z,-1.00
2017-12-02T08:39:41.735Z,-0.90
2017-12-02T08:42:09.239Z,-0.90
2017-12-02T08:44:36.763Z,-0.90
2017-12-02T08:47:04.265Z,-0.80
2017-12-02T08:49:31.803Z,-0.80
2017-12-02T08:51:59.310Z,-0.70
2017-12-02T08:54:27.607Z,-0.60
2017-12-02T08:56:55.110Z,-0.60
2017-12-02T08:59:22.634Z,-0.60
2017-12-02T09:01:50.139Z,-0.60
2017-12-02T09:04:17.667Z,-0.60
2017-12-02T09:06:45.172Z,-0.60
2017-12-02T09:09:13.466Z,-0.50
2017-12-02T09:11:41.740Z,-0.50
2017-12-02T09:14:10.040Z,-0.40
2017-12-02T09:16:37.544Z,-0.40
2017-12-02T09:19:05.072Z,-0.30
2017-12-02T09:21:32.583Z,-0.20
2017-12-02T09:24:00.878Z,-0.20
2017-12-02T09:26:28.378Z,-0.20
2017-12-02T09:28:56.016Z,-0.10
2017-12-02T09:31:23.527Z,-0.10
2017-12-02T09:33:51.051Z,0.00
2017-12-02T09:36:18.559Z,0.10
2017-12-02T09:38:46.846Z,0.10
2017-12-02T09:41:14.348Z,0.10
2017-12-02T09:43:41.876Z,0.10
2017-12-02T09:46:09.387Z,0.20
2017-12-02T09:48:36.912Z,0.20
2017-12-02T09:51:04.415Z,0.10
2017-12-02T09:53:31.942Z,0.10
2017-12-02T09:55:59.443Z,0.20
2017-12-02T09:58:27.733Z,0.30
2017-12-02T10:00:55.234Z,0.30
2017-12-02T10:03:22.759Z,0.40
2017-12-02T10:05:50.260Z,0.40
2017-12-02T10:08:17.759Z,0.40
2017-12-02T10:10:46.048Z,0.50
2017-12-02T10:13:13.546Z,0.50
2017-12-02T10:15:41.074Z,0.50
2017-12-02T10:18:08.572Z,0.50
2017-12-02T10:20:36.095Z,0.50
2017-12-02T10:23:03.595Z,0.60
2017-12-02T10:25:31.124Z,0.60
2017-12-02T10:27:58.623Z,0.60
2017-12-02T10:30:26.146Z,0.70
2017-12-02T10:32:53.667Z,0.70
2017-12-02T10:35:21.195Z,0.70
2017-12-02T10:37:48.694Z,0.70
2017-12-02T10:40:16.215Z,0.70
2017-12-02T10:42:43.719Z,0.70
2017-12-02T10:45:11.254Z,0.80
2017-12-02T10:47:39.523Z,0.60
2017-12-02T10:50:07.815Z,0.50
2017-12-02T10:52:35.319Z,0.50
2017-12-02T10:55:02.841Z,0.50
2017-12-02T10:57:30.348Z,0.50
2017-12-02T10:59:57.875Z,0.40
2017-12-02T11:02:25.371Z,0.50
2017-12-02T11:04:52.899Z,0.50
2017-12-02T11:07:20.399Z,0.60
2017-12-02T11:09:47.923Z,0.60
2017-12-02T11:12:15.423Z,0.70
2017-12-02T11:14:43.716Z,0.70
2017-12-02T11:17:11.214Z,0.70
2017-12-02T11:19:38.734Z,0.80
2017-12-02T11:22:06.231Z,0.90
2017-12-02T11:24:33.752Z,1.20
2017-12-02T11:27:01.255Z,1.40
2017-12-02T11:29:28.787Z,1.60
2017-12-02T11:31:56.293Z,1.80
2017-12-02T11:34:23.814Z,1.80
2017-12-02T11:36:51.310Z,1.90
2017-12-02T11:39:18.839Z,1.90
2017-12-02T11:41:46.354Z,1.90
2017-12-02T11:44:14.639Z,1.90
2017-12-02T11:46:42.138Z,1.90
2017-12-02T11:49:09.659Z,1.80
2017-12-02T11:51:37.163Z,1.80
2017-12-02T11:54:04.684Z,1.80
2017-12-02T11:56:32.183Z,1.70
2017-12-02T11:58:59.706Z,1.70
2017-12-02T12:01:27.203Z,1.60
2017-12-02T12:03:54.731Z,1.60
2017-12-02T12:06:22.231Z,1.70
2017-12-02T12:08:49.759Z,2.00
2017-12-02T12:11:17.267Z,2.40
2017-12-02T12:13:45.560Z,3.10
2017-12-02T12:16:13.059Z,3.10
2017-12-02T12:18:40.583Z,3.70
2017-12-02T12:21:08.087Z,4.30
2017-12-02T12:23:35.616Z,4.50
2017-12-02T12:26:03.127Z,4.30
2017-12-02T12:28:31.415Z,3.90
2017-12-02T12:30:59.679Z,3.70
2017-12-02T12:33:27.967Z,3.60
2017-12-02T12:35:56.230Z,3.30
2017-12-02T12:38:24.519Z,3.10
2017-12-02T12:40:52.783Z,2.90
2017-12-02T12:43:20.307Z,2.90
2017-12-02T12:45:47.806Z,2.90
2017-12-02T12:48:16.095Z,2.80
2017-12-02T12:50:44.364Z,2.90
2017-12-02T12:53:12.656Z,3.20
2017-12-02T12:55:40.160Z,3.20
2017-12-02T12:58:07.683Z,3.50
2017-12-02T13:00:35.195Z,3.60
2017-12-02T13:03:02.720Z,3.50
2017-12-02T13:05:30.239Z,3.20
2017-12-02T13:07:58.526Z,2.80
2017-12-02T13:10:26.027Z,2.80
2017-12-02T13:12:53.551Z,2.60
2017-12-02T13:15:21.055Z,2.30
2017-12-02T13:17:48.578Z,2.00
2017-12-02T13:20:16.074Z,1.90
2017-12-02T13:22:43.598Z,1.90
2017-12-02T13:25:11.103Z,1.80
2017-12-02T13:27:38.604Z,1.70
2017-12-02T13:30:06.131Z,1.50
2017-12-02T13:32:34.398Z,1.50
2017-12-02T13:35:01.928Z,1.50
2017-12-02T13:37:29.435Z,1.30
2017-12-02T13:39:57.723Z,1.00
2017-12-02T13:42:25.227Z,1.00
2017-12-02T13:44:52.757Z,0.90
2017-12-02T13:47:20.263Z,1.00
2017-12-02T13:49:47.789Z,0.90
2017-12-02T13:52:15.311Z,0.90
2017-12-02T13:54:42.831Z,0.90
2017-12-02T13:57:10.334Z,0.90
2017-12-02T13:59:37.855Z,0.90
2017-12-02T14:02:05.362Z,0.90
2017-12-02T14:04:32.892Z,1.00
2017-12-02T14:07:01.172Z,0.90
2017-12-02T14:09:29.459Z,0.80
2017-12-02T14:11:56.970Z,0.80
2017-12-02T14:14:24.491Z,0.70
2017-12-02T14:16:51.994Z,0.70
2017-12-02T14:19:20.281Z,0.60
2017-12-02T14:21:47.780Z,0.60
2017-12-02T14:24:15.302Z,0.40
2017-12-02T14:26:43.570Z,0.00
2017-12-02T14:29:11.095Z,0.00
2017-12-02T14:31:38.599Z,0.00
2017-12-02T14:34:06.887Z,0.00
2017-12-02T14:36:35.160Z,-0.10
2017-12-02T14:39:03.451Z,-0.20
2017-12-02T14:41:30.962Z,-0.30
2017-12-02T14:43:58.487Z,-0.30
2017-12-02T14:46:25.991Z,-0.40
2017-12-02T14:48:53.531Z,-0.40
2017-12-02T14:51:21.047Z,-0.50
2017-12-02T14:53:48.570Z,-0.50
2017-12-02T14:56:16.080Z,-0.50
2017-12-02T14:58:43.608Z,-0.70
2017-12-02T15:01:11.879Z,-0.70
2017-12-02T15:03:40.170Z,-0.80
2017-12-02T15:06:07.770Z,-0.80
2017-12-02T15:08:35.291Z,-0.90
2017-12-02T15:11:02.803Z,-1.00
2017-12-02T15:13:30.334Z,-1.10
2017-12-02T15:15:57.838Z,-1.20
2017-12-02T15:18:25.367Z,-1.20
2017-12-02T15:20:52.870Z,-1.30
2017-12-02T15:23:21.163Z,-1.40
2017-12-02T15:25:48.671Z,-1.40
2017-12-02T15:28:17.708Z,-1.40
2017-12-02T15:30:45.211Z,-1.40
2017-12-02T15:33:12.739Z,-1.40
2017-12-02T15:35:40.252Z,-1.50
2017-12-02T15:38:07.783Z,-1.60
2017-12-02T15:40:35.287Z,-1.70
2017-12-02T15:43:03.583Z,-1.70
2017-12-02T15:45:31.092Z,-1.70
2017-12-02T15:47:58.623Z,-1.70
2017-12-02T15:50:26.135Z,-1.60
2017-12-02T15:52:54.482Z,-1.60
2017-12-02T15:55:21.951Z,-1.60
2017-12-02T15:57:49.478Z,-1.60
2017-12-02T16:00:16.991Z,-1.60
2017-12-02T16:02:45.287Z,-1.60
2017-12-02T16:05:12.795Z,-1.50
2017-12-02T16:07:40.323Z,-1.50
2017-12-02T16:10:07.880Z,-1.50
2017-12-02T16:12:36.143Z,-1.50
2017-12-02T16:15:03.651Z,-1.60
2017-12-02T16:17:31.179Z,-1.50
2017-12-02T16:19:58.683Z,-1.50
2017-12-02T16:22:26.216Z,-1.50
2017-12-02T16:24:53.723Z,-1.50
2017-12-02T16:27:22.015Z,-1.50
2017-12-02T16:29:49.518Z,-1.50
2017-12-02T16:32:17.043Z,-1.50
2017-12-02T16:34:44.549Z,-1.40
2017-12-02T16:37:12.072Z,-1.40
2017-12-02T16:39:39.579Z,-1.30
2017-12-02T16:42:07.871Z,-1.40
2017-12-02T16:44:36.175Z,-1.30
2017-12-02T16:47:03.699Z,-1.30
2017-12-02T16:49:31.975Z,-1.40
2017-12-02T16:52:00.251Z,-1.30
2017-12-02T16:54:28.543Z,-1.40
2017-12-02T16:56:56.051Z,-1.40
2017-12-02T16:59:23.579Z,-1.30
2017-12-02T17:01:51.090Z,-1.30
2017-12-02T17:04:18.630Z,-1.30
2017-12-02T17:06:46.135Z,-1.30
2017-12-02T17:09:13.662Z,-1.30
2017-12-02T17:11:41.168Z,-1.20
2017-12-02T17:14:08.699Z,-1.20
2017-12-02T17:16:36.975Z,-1.10
2017-12-02T17:19:05.267Z,-1.10
2017-12-02T17:21:32.782Z,-1.10
2017-12-02T17:24:00.307Z,-1.10
2017-12-02T17:26:27.811Z,-1.00
2017-12-02T17:28:55.340Z,-1.00
2017-12-02T17:31:22.843Z,-1.00
2017-12-02T17:33:51.135Z,-1.00
2017-12-02T17:36:18.635Z,-1.10
2017-12-02T17:38:46.163Z,-1.00
2017-12-02T17:41:13.667Z,-1.00
2017-12-02T17:43:41.211Z,-1.00
2017-12-02T17:46:08.724Z,-1.00
2017-12-02T17:48:36.256Z,-1.00
2017-12-02T17:51:03.763Z,-0.90
2017-12-02T17:53:31.298Z,-0.90
2017-12-02T17:55:58.803Z,-0.90
2017-12-02T17:58:26.351Z,-0.90
2017-12-02T18:00:53.856Z,-0.90
2017-12-02T18:03:22.149Z,-0.90
2017-12-02T18:05:49.651Z,-0.90
2017-12-02T18:08:17.176Z,-0.90
2017-12-02T18:10:44.682Z,-0.90
2017-12-02T18:13:12.215Z,-0.80
2017-12-02T18:15:39.724Z,-0.80
2017-12-02T18:18:08.023Z,-0.80
2017-12-02T18:20:35.535Z,-0.80
2017-12-02T18:23:03.071Z,-0.80
2017-12-02T18:25:30.574Z,-0.80
2017-12-02T18:27:58.107Z,-0.90
2017-12-02T18:30:25.620Z,-0.90
2017-12-02T18:32:53.150Z,-0.80
2017-12-02T18:35:21.418Z,-0.80
2017-12-02T18:37:49.731Z,-0.80
2017-12-02T18:40:17.238Z,-0.80
2017-12-02T18:42:44.767Z,-0.70
2017-12-02T18:45:12.271Z,-0.70
2017-12-02T18:47:39.798Z,-0.60
2017-12-02T18:50:07.305Z,-0.60
2017-12-02T18:52:35.590Z,-0.50
2017-12-02T18:55:03.863Z,-0.60
2017-12-02T18:57:32.156Z,-0.50
2017-12-02T18:59:59.665Z,-0.60
2017-12-02T19:02:27.195Z,-0.50
2017-12-02T19:04:54.707Z,-0.50
2017-12-02T19:07:22.994Z,-0.50
2017-12-02T19:09:51.262Z,-0.50
2017-12-02T19:12:19.553Z,-0.50
2017-12-02T19:14:47.065Z,-0.50
2017-12-02T19:17:14.598Z,-0.50
2017-12-02T19:19:42.103Z,-0.50
2017-12-02T19:22:09.640Z,-0.40
2017-12-02T19:24:37.147Z,-0.40
2017-12-02T19:27:04.680Z,-0.40
2017-12-02T19:29:32.185Z,-0.50
2017-12-02T19:31:59.715Z,-0.40
2017-12-02T19:34:28.003Z,-0.40
2017-12-02T19:36:55.503Z,-0.40
2017-12-02T19:39:23.035Z,-0.40
2017-12-02T19:41:50.535Z,-0.40
2017-12-02T19:44:18.070Z,-0.40
2017-12-02T19:46:45.575Z,-0.40
2017-12-02T19:49:13.867Z,-0.40
2017-12-02T19:51:41.375Z,-0.40
2017-12-02T19:54:08.900Z,-0.40
2017-12-02T19:56:36.403Z,-0.40
2017-12-02T19:59:03.927Z,-0.40
2017-12-02T20:01:31.430Z,-0.40
2017-12-02T20:03:58.955Z,-0.40
2017-12-02T20:06:26.463Z,-0.40
2017-12-02T20:08:54.759Z,-0.40
2017-12-02T20:11:22.266Z,-0.40
2017-12-02T20:13:49.791Z,-0.40
2017-12-02T20:16:17.291Z,-0.40
2017-12-02T20:18:44.818Z,-0.40
2017-12-02T20:21:12.323Z,-0.40
2017-12-02T20:23:40.626Z,-0.40
2017-12-02T20:26:08.139Z,-0.40
2017-12-02T20:28:35.732Z,-0.40
2017-12-02T20:31:04.010Z,-0.30
2017-12-02T20:33:32.303Z,-0.30
2017-12-02T20:35:59.811Z,-0.40
2017-12-02T20:38:27.335Z,-0.30
2017-12-02T20:40:54.839Z,-0.40
2017-12-02T20:43:22.362Z,-0.40
2017-12-02T20:45:49.871Z,-0.40
2017-12-02T20:48:18.139Z,-0.40
2017-12-02T20:50:46.436Z,-0.40
2017-12-02T20:53:14.707Z,-0.40
2017-12-02T20:55:42.998Z,-0.40
2017-12-02T20:58:10.502Z,-0.40
2017-12-02T21:00:38.039Z,-0.40
2017-12-02T21:03:05.548Z,-0.40
2017-12-02T21:05:33.843Z,-0.40
2017-12-02T21:08:02.115Z,-0.50
2017-12-02T21:10:30.402Z,-0.40
2017-12-02T21:12:57.906Z,-0.40
2017-12-02T21:15:25.431Z,-0.50
2017-12-02T21:17:52.939Z,-0.40
2017-12-02T21:20:20.471Z,-0.50
2017-12-02T21:22:47.978Z,-0.40
2017-12-02T21:25:16.275Z,-0.40
2017-12-02T21:27:43.783Z,-0.40
2017-12-02T21:30:11.314Z,-0.30
2017-12-02T21:32:38.819Z,-0.30
2017-12-02T21:35:06.347Z,-0.30
2017-12-02T21:37:33.850Z,-0.30
2017-12-02T21:40:02.154Z,-0.20
2017-12-02T21:42:29.655Z,-0.30
2017-12-02T21:44:57.190Z,-0.30
2017-12-02T21:47:24.711Z,-0.30
2017-12-02T21:49:53.003Z,-0.30
2017-12-02T21:52:20.515Z,-0.30
2017-12-02T21:54:48.042Z,-0.30
2017-12-02T21:57:15.544Z,-0.20
2017-12-02T21:59:43.834Z,-0.10
2017-12-02T22:02:12.107Z,-0.10
2017-12-02T22:04:40.403Z,-0.10
2017-12-02T22:07:07.971Z,-0.10
2017-12-02T22:09:35.499Z,-0.10
2017-12-02T22:12:03.768Z,0.00
2017-12-02T22:14:32.054Z,0.00
2017-12-02T22:17:00.327Z,0.00
2017-12-02T22:19:28.615Z,0.00
2017-12-02T22:21:56.880Z,0.00
2017-12-02T22:24:25.175Z,0.00
2017-12-02T22:26:52.684Z,-0.10
2017-12-02T22:29:20.208Z,0.00
2017-12-02T22:31:47.708Z,0.00
2017-12-02T22:34:15.235Z,0.00
2017-12-02T22:36:42.734Z,0.00
2017-12-02T22:39:10.255Z,0.00
2017-12-02T22:41:37.756Z,0.00
2017-12-02T22:44:05.284Z,0.00
2017-12-02T22:46:32.792Z,0.00
2017-12-02T22:49:01.083Z,0.00
2017-12-02T22:51:28.585Z,0.00
2017-12-02T22:53:56.112Z,0.00
2017-12-02T22:56:23.615Z,0.00
2017-12-02T22:58:51.142Z,0.00
2017-12-02T23:01:18.643Z,0.10
2017-12-02T23:03:46.172Z,0.10
2017-12-02T23:06:13.671Z,0.10
2017-12-02T23:08:41.958Z,0.20
2017-12-02T23:11:09.460Z,0.20
2017-12-02T23:13:36.988Z,0.20
2017-12-02T23:16:04.491Z,0.20
2017-12-02T23:18:31.991Z,0.20
2017-12-02T23:21:00.281Z,0.20
2017-12-02T23:23:27.778Z,0.20
2017-12-02T23:25:55.299Z,0.20
2017-12-02T23:28:22.798Z,0.20
2017-12-02T23:30:50.322Z,0.20
2017-12-02T23:33:17.823Z,0.20
2017-12-02T23:35:45.342Z,0.30
2017-12-02T23:38:12.847Z,0.30
2017-12-02T23:40:40.367Z,0.20
2017-12-02T23:43:07.867Z,0.20
2017-12-02T23:45:35.401Z,0.20
2017-12-02T23:48:02.899Z,0.20
2017-12-02T23:50:31.195Z,0.10
2017-12-02T23:52:58.693Z,0.10
2017-12-02T23:55:26.231Z,0.00
2017-12-02T23:57:53.734Z,0.00
